Time,TemperatureF,DewpointF,PressureIn,WindDirection,WindDirectionDegrees,WindSpeedMPH,WindSpeedGustMPH,Humidity,HourlyPrecipIn,Conditions,Clouds,dailyrainin,SoftwareType,DateUTC
2013-08-29 00:08:00,75.6,65.9,29.92,SSE,155,0.0,2.0,72,0.00,,,-99.99,Weather View 32 v70,2013-08-29 05:08:00,
2013-08-29 00:13:00,75.6,65.9,29.92,SSE,154,0.0,2.0,72,0.00,,,-99.99,Weather View 32 v70,2013-08-29 05:13:00,
2013-08-29 00:23:00,75.4,66.1,29.92,ESE,112,0.0,4.0,73,0.00,,,-99.99,Weather View 32 v70,2013-08-29 05:23:00,
2013-08-29 00:33:00,75.2,66.3,29.92,ESE,113,0.0,4.0,74,0.00,,,-99.99,Weather View 32 v70,2013-08-29 05:33:00,
2013-08-29 00:38:00,75.2,66.3,29.92,ESE,113,0.0,4.0,74,0.00,,,-99.99,Weather View 32 v70,2013-08-29 05:38:00,
2013-08-29 00:44:00,75.2,66.7,29.92,ESE,110,0.0,4.0,75,0.00,,,-99.99,Weather View 32 v70,2013-08-29 05:44:00,
2013-08-29 00:53:00,75.2,67.1,29.92,ESE,115,0.0,4.0,76,0.00,,,-99.99,Weather View 32 v70,2013-08-29 05:53:00,
2013-08-29 00:58:00,75.2,67.1,29.92,ESE,115,0.0,4.0,76,0.00,,,-99.99,Weather View 32 v70,2013-08-29 05:58:00,
2013-08-29 01:03:00,75.0,67.3,29.92,ESE,114,0.0,4.0,77,0.00,,,-99.99,Weather View 32 v70,2013-08-29 06:03:00,
2013-08-29 01:08:00,74.8,67.1,29.92,ESE,123,0.0,4.0,77,0.00,,,-99.99,Weather View 32 v70,2013-08-29 06:08:00,
2013-08-29 01:18:00,74.8,67.5,29.92,ESE,117,0.0,4.0,78,0.00,,,-99.99,Weather View 32 v70,2013-08-29 06:18:00,
2013-08-29 01:23:00,74.8,67.5,29.92,ESE,118,0.0,4.0,78,0.00,,,-99.99,Weather View 32 v70,2013-08-29 06:23:00,
2013-08-29 01:33:00,74.7,67.7,29.92,ESE,103,0.0,4.0,79,0.00,,,-99.99,Weather View 32 v70,2013-08-29 06:33:00,
2013-08-29 01:38:00,74.7,67.7,29.92,ESE,104,0.0,4.0,79,0.00,,,-99.99,Weather View 32 v70,2013-08-29 06:38:00,
2013-08-29 01:43:00,74.7,67.7,29.92,ESE,106,0.0,4.0,79,0.00,,,-99.99,Weather View 32 v70,2013-08-29 06:43:00,
2013-08-29 01:48:00,74.7,68.1,29.92,ESE,106,0.0,4.0,80,0.00,,,-99.99,Weather View 32 v70,2013-08-29 06:48:00,
2013-08-29 01:57:00,74.8,68.6,29.92,ESE,103,0.0,5.0,81,0.00,,,-99.99,Weather View 32 v70,2013-08-29 06:57:00,
2013-08-29 02:02:00,74.8,68.6,29.92,ESE,104,0.0,5.0,81,0.00,,,-99.99,Weather View 32 v70,2013-08-29 07:02:00,
2013-08-29 02:07:00,75.0,69.1,29.92,ESE,104,0.0,5.0,82,0.00,,,-99.99,Weather View 32 v70,2013-08-29 07:07:00,
2013-08-29 02:12:00,75.0,69.1,29.92,ESE,104,0.0,5.0,82,0.00,,,-99.99,Weather View 32 v70,2013-08-29 07:12:00,
2013-08-29 02:22:00,75.6,70.0,29.89,ESE,106,3.0,5.0,83,0.00,,,-99.99,Weather View 32 v70,2013-08-29 07:22:00,
2013-08-29 02:27:00,75.7,70.5,29.89,ESE,109,4.0,5.0,84,0.00,,,-99.99,Weather View 32 v70,2013-08-29 07:27:00,
2013-08-29 02:37:00,76.3,71.1,29.92,SW,222,0.0,6.0,84,0.00,,,-99.99,Weather View 32 v70,2013-08-29 07:37:00,
2013-08-29 02:42:00,76.3,71.1,29.92,ESE,112,0.0,6.0,84,0.00,,,-99.99,Weather View 32 v70,2013-08-29 07:42:00,
2013-08-29 02:48:00,76.3,71.1,29.92,ESE,109,3.0,6.0,84,0.00,,,-99.99,Weather View 32 v70,2013-08-29 07:48:00,
2013-08-29 02:53:00,76.3,71.1,29.92,SSW,199,0.0,6.0,84,0.00,,,-99.99,Weather View 32 v70,2013-08-29 07:53:00,
2013-08-29 03:03:00,76.6,71.8,29.89,SSE,163,2.0,6.0,85,0.00,,,-99.99,Weather View 32 v70,2013-08-29 08:03:00,
2013-08-29 03:13:00,77.0,72.1,29.89,SSE,155,0.0,6.0,85,0.00,,,-99.99,Weather View 32 v70,2013-08-29 08:13:00,
2013-08-29 03:23:00,77.4,72.5,29.89,SE,141,0.0,6.0,85,0.00,,,-99.99,Weather View 32 v70,2013-08-29 08:23:00,
2013-08-29 03:28:00,77.5,72.7,29.89,South,187,0.0,6.0,85,0.00,,,-99.99,Weather View 32 v70,2013-08-29 08:28:00,
2013-08-29 03:38:00,77.4,72.5,29.89,South,175,0.0,6.0,85,0.00,,,-99.99,Weather View 32 v70,2013-08-29 08:38:00,
2013-08-29 03:43:00,77.4,72.1,29.89,SSW,200,0.0,6.0,84,0.00,,,-99.99,Weather View 32 v70,2013-08-29 08:43:00,
2013-08-29 03:48:00,77.4,72.1,29.89,South,170,4.0,6.0,84,0.00,,,-99.99,Weather View 32 v70,2013-08-29 08:48:00,
2013-08-29 03:53:00,77.2,71.9,29.89,SSE,158,0.0,6.0,84,0.00,,,-99.99,Weather View 32 v70,2013-08-29 08:53:00,
2013-08-29 04:03:00,77.0,72.1,29.89,SSE,162,0.0,6.0,85,0.00,,,-99.99,Weather View 32 v70,2013-08-29 09:03:00,
2013-08-29 04:08:00,76.8,72.3,29.89,SSW,208,3.0,6.0,86,0.00,,,-99.99,Weather View 32 v70,2013-08-29 09:08:00,
2013-08-29 04:13:00,76.6,72.1,29.89,SSW,206,0.0,6.0,86,0.00,,,-99.99,Weather View 32 v70,2013-08-29 09:13:00,
2013-08-29 04:18:00,76.5,72.3,29.89,SSW,206,3.0,6.0,87,0.04,,,-99.99,Weather View 32 v70,2013-08-29 09:18:00,
2013-08-29 04:23:00,76.3,72.1,29.89,NW,310,0.0,6.0,87,0.04,,,-99.99,Weather View 32 v70,2013-08-29 09:23:00,
2013-08-29 04:33:00,76.3,72.4,29.89,NW,315,0.0,6.0,88,0.04,,,-99.99,Weather View 32 v70,2013-08-29 09:33:00,
2013-08-29 04:38:00,76.1,72.3,29.89,NW,315,0.0,6.0,88,0.04,,,-99.99,Weather View 32 v70,2013-08-29 09:38:00,
2013-08-29 04:43:00,76.1,72.3,29.89,NW,315,0.0,4.0,88,0.04,,,-99.99,Weather View 32 v70,2013-08-29 09:43:00,
2013-08-29 04:52:00,76.1,72.3,29.86,NW,315,0.0,4.0,88,0.04,,,-99.99,Weather View 32 v70,2013-08-29 09:52:00,
2013-08-29 04:57:00,76.1,72.6,29.86,NW,315,0.0,4.0,89,0.04,,,-99.99,Weather View 32 v70,2013-08-29 09:57:00,
2013-08-29 05:02:00,76.1,72.6,29.86,NW,315,0.0,4.0,89,0.04,,,-99.99,Weather View 32 v70,2013-08-29 10:02:00,
2013-08-29 05:12:00,76.1,72.6,29.86,NW,315,0.0,4.0,89,0.04,,,-99.99,Weather View 32 v70,2013-08-29 10:12:00,
2013-08-29 05:22:00,76.1,72.6,29.89,NW,315,0.0,4.0,89,0.00,,,-99.99,Weather View 32 v70,2013-08-29 10:22:00,
2013-08-29 05:27:00,76.1,72.6,29.89,NW,315,0.0,0.0,89,0.00,,,-99.99,Weather View 32 v70,2013-08-29 10:27:00,
2013-08-29 05:37:00,76.5,73.3,29.86,SE,136,3.0,4.0,90,0.00,,,-99.99,Weather View 32 v70,2013-08-29 10:37:00,
2013-08-29 05:46:00,76.6,73.5,29.86,East,100,0.0,6.0,90,0.00,,,-99.99,Weather View 32 v70,2013-08-29 10:46:00,
2013-08-29 05:53:00,76.8,74.0,29.86,ESE,102,4.0,6.0,91,0.00,,,-99.99,Weather View 32 v70,2013-08-29 10:53:00,
2013-08-29 05:58:00,76.8,74.0,29.83,SE,127,0.0,6.0,91,0.00,,,-99.99,Weather View 32 v70,2013-08-29 10:58:00,
2013-08-29 06:08:00,76.8,74.0,29.83,SE,145,3.0,6.0,91,0.00,,,-99.99,Weather View 32 v70,2013-08-29 11:08:00,
2013-08-29 06:13:00,76.8,74.0,29.83,ESE,112,2.0,6.0,91,0.00,,,-99.99,Weather View 32 v70,2013-08-29 11:13:00,
2013-08-29 06:23:00,76.6,73.8,29.83,SSE,157,0.0,6.0,91,0.00,,,-99.99,Weather View 32 v70,2013-08-29 11:23:00,
2013-08-29 06:28:00,76.6,73.8,29.83,SSE,158,0.0,6.0,91,0.00,,,-99.99,Weather View 32 v70,2013-08-29 11:28:00,
2013-08-29 06:38:00,76.6,74.1,29.83,SSW,193,0.0,6.0,92,0.00,,,-99.99,Weather View 32 v70,2013-08-29 11:38:00,
2013-08-29 06:46:00,76.6,74.1,29.83,SSE,164,0.0,5.0,92,0.00,,,-99.99,Weather View 32 v70,2013-08-29 11:46:00,
2013-08-29 06:53:00,76.8,74.3,29.83,SE,128,3.0,5.0,92,0.00,,,-99.99,Weather View 32 v70,2013-08-29 11:53:00,
2013-08-29 07:03:00,77.0,74.5,29.83,ESE,121,0.0,5.0,92,0.00,,,-99.99,Weather View 32 v70,2013-08-29 12:03:00,
2013-08-29 07:08:00,77.0,74.5,29.83,SE,126,6.0,6.0,92,0.00,,,-99.99,Weather View 32 v70,2013-08-29 12:08:00,
2013-08-29 07:13:00,77.2,74.7,29.83,SE,141,3.0,6.0,92,0.00,,,-99.99,Weather View 32 v70,2013-08-29 12:13:00,
2013-08-29 07:23:00,77.2,74.7,29.83,SSE,151,0.0,6.0,92,0.00,,,-99.99,Weather View 32 v70,2013-08-29 12:23:00,
2013-08-29 07:33:00,77.4,75.2,29.83,ESE,107,0.0,6.0,93,0.00,,,-99.99,Weather View 32 v70,2013-08-29 12:33:00,
2013-08-29 07:38:00,77.4,75.2,29.83,SSE,167,0.0,6.0,93,0.00,,,-99.99,Weather View 32 v70,2013-08-29 12:38:00,
2013-08-29 07:46:00,77.5,75.3,29.83,SSE,164,0.0,6.0,93,0.00,,,-99.99,Weather View 32 v70,2013-08-29 12:46:00,
2013-08-29 07:53:00,77.5,75.3,29.83,SW,218,0.0,6.0,93,0.00,,,-99.99,Weather View 32 v70,2013-08-29 12:53:00,
2013-08-29 08:02:00,77.7,75.5,29.89,NW,305,3.0,8.0,93,0.00,,,-99.99,Weather View 32 v70,2013-08-29 13:02:00,
2013-08-29 08:07:00,77.5,75.3,29.89,WNW,285,0.0,8.0,93,0.00,,,-99.99,Weather View 32 v70,2013-08-29 13:07:00,
2013-08-29 08:17:00,77.5,75.3,29.89,NW,314,0.0,8.0,93,0.00,,,-99.99,Weather View 32 v70,2013-08-29 13:17:00,
2013-08-29 08:22:00,77.7,75.5,29.89,WNW,296,3.0,8.0,93,0.00,,,-99.99,Weather View 32 v70,2013-08-29 13:22:00,
2013-08-29 08:32:00,77.7,75.8,29.89,WNW,296,0.0,8.0,94,0.00,,,-99.99,Weather View 32 v70,2013-08-29 13:32:00,
2013-08-29 08:37:00,77.5,75.7,29.89,WNW,296,0.0,8.0,94,0.00,,,-99.99,Weather View 32 v70,2013-08-29 13:37:00,
2013-08-29 08:43:00,77.4,75.2,29.89,WNW,296,0.0,8.0,93,0.00,,,-99.99,Weather View 32 v70,2013-08-29 13:43:00,
2013-08-29 08:53:00,77.2,75.0,29.89,WNW,296,0.0,8.0,93,0.00,,,-99.99,Weather View 32 v70,2013-08-29 13:53:00,
2013-08-29 09:03:00,77.0,74.8,29.89,WNW,299,0.0,6.0,93,0.00,,,-99.99,Weather View 32 v70,2013-08-29 14:03:00,
2013-08-29 09:08:00,76.8,75.0,29.89,WNW,299,0.0,6.0,94,0.00,,,-99.99,Weather View 32 v70,2013-08-29 14:08:00,
2013-08-29 09:13:00,76.3,74.4,29.86,SSW,209,3.0,6.0,94,0.00,,,-99.99,Weather View 32 v70,2013-08-29 14:13:00,
2013-08-29 09:23:00,75.7,73.6,29.86,SW,220,2.0,4.0,93,0.00,,,-99.99,Weather View 32 v70,2013-08-29 14:23:00,
2013-08-29 09:33:00,75.6,73.1,29.89,WSW,239,3.0,4.0,92,0.04,,,-99.99,Weather View 32 v70,2013-08-29 14:33:00,
2013-08-29 09:43:00,75.2,72.7,29.89,WSW,247,4.0,9.0,92,0.08,,,-99.99,Weather View 32 v70,2013-08-29 14:43:00,
2013-08-29 09:48:00,75.2,72.7,29.83,WSW,245,3.0,9.0,92,0.08,,,-99.99,Weather View 32 v70,2013-08-29 14:48:00,
2013-08-29 09:58:00,75.4,73.2,29.83,SSW,213,4.0,9.0,93,0.08,,,-99.99,Weather View 32 v70,2013-08-29 14:58:00,
2013-08-29 10:08:00,76.3,74.4,29.83,South,175,3.0,10.0,94,0.08,,,-99.99,Weather View 32 v70,2013-08-29 15:08:00,
2013-08-29 10:13:00,76.8,75.0,29.83,East,88,4.0,10.0,94,0.08,,,-99.99,Weather View 32 v70,2013-08-29 15:13:00,
2013-08-29 10:23:00,77.2,75.3,29.80,SSW,200,3.0,10.0,94,0.08,,,-99.99,Weather View 32 v70,2013-08-29 15:23:00,
2013-08-29 10:33:00,78.1,76.2,29.80,East,79,6.0,10.0,94,0.04,,,-99.99,Weather View 32 v70,2013-08-29 15:33:00,
2013-08-29 10:38:00,78.8,76.9,29.80,West,264,6.0,10.0,94,0.00,,,-99.99,Weather View 32 v70,2013-08-29 15:38:00,
2013-08-29 10:48:00,80.1,78.2,29.80,SW,221,4.0,10.0,94,0.00,,,-99.99,Weather View 32 v70,2013-08-29 15:48:00,
2013-08-29 10:57:00,80.6,77.7,29.80,SSW,206,3.0,10.0,91,0.00,,,-99.99,Weather View 32 v70,2013-08-29 15:57:00,
2013-08-29 11:02:00,81.0,77.4,29.83,South,169,0.0,10.0,89,0.00,,,-99.99,Weather View 32 v70,2013-08-29 16:02:00,
2013-08-29 11:12:00,81.9,76.9,29.83,SSE,159,6.0,9.0,85,0.00,,,-99.99,Weather View 32 v70,2013-08-29 16:12:00,
2013-08-29 11:22:00,82.6,72.2,29.83,South,171,3.0,9.0,71,0.00,,,-99.99,Weather View 32 v70,2013-08-29 16:22:00,
2013-08-29 11:32:00,82.2,71.0,29.80,SE,145,3.0,9.0,69,0.00,,,-99.99,Weather View 32 v70,2013-08-29 16:32:00,
2013-08-29 11:43:00,83.1,72.3,29.80,SSE,148,4.0,8.0,70,0.00,,,-99.99,Weather View 32 v70,2013-08-29 16:43:00,
2013-08-29 11:49:00,84.0,73.1,29.80,South,190,0.0,8.0,70,0.00,,,-99.99,Weather View 32 v70,2013-08-29 16:49:00,
2013-08-29 11:58:00,85.3,72.1,29.80,SE,135,0.0,8.0,65,0.00,,,-99.99,Weather View 32 v70,2013-08-29 16:58:00,
2013-08-29 12:08:00,85.8,71.7,29.80,SE,138,3.0,9.0,63,0.00,,,-99.99,Weather View 32 v70,2013-08-29 17:08:00,
2013-08-29 12:18:00,85.6,71.1,29.80,SW,214,6.0,10.0,62,0.00,,,-99.99,Weather View 32 v70,2013-08-29 17:18:00,
2013-08-29 12:23:00,86.4,71.7,29.80,South,184,7.0,10.0,62,0.00,,,-99.99,Weather View 32 v70,2013-08-29 17:23:00,
2013-08-29 12:33:00,86.4,71.3,29.80,SSW,206,0.0,10.0,61,0.00,,,-99.99,Weather View 32 v70,2013-08-29 17:33:00,
2013-08-29 12:43:00,86.5,71.9,29.80,SW,215,3.0,10.0,62,0.00,,,-99.99,Weather View 32 v70,2013-08-29 17:43:00,
2013-08-29 12:48:00,87.1,71.9,29.80,WSW,251,3.0,10.0,61,0.00,,,-99.99,Weather View 32 v70,2013-08-29 17:48:00,
2013-08-29 12:58:00,87.6,70.9,29.80,SSE,151,3.0,10.0,58,0.00,,,-99.99,Weather View 32 v70,2013-08-29 17:58:00,
2013-08-29 13:08:00,87.4,70.8,29.83,SSW,193,4.0,10.0,58,0.00,,,-99.99,Weather View 32 v70,2013-08-29 18:08:00,
2013-08-29 13:13:00,87.3,70.1,29.83,SE,137,3.0,8.0,57,0.00,,,-99.99,Weather View 32 v70,2013-08-29 18:13:00,
2013-08-29 13:23:00,87.6,70.9,29.83,SE,139,3.0,8.0,58,0.00,,,-99.99,Weather View 32 v70,2013-08-29 18:23:00,
2013-08-29 13:33:00,87.8,71.1,29.83,NW,308,4.0,8.0,58,0.00,,,-99.99,Weather View 32 v70,2013-08-29 18:33:00,
2013-08-29 13:43:00,87.3,71.6,29.83,WNW,300,6.0,10.0,60,0.00,,,-99.99,Weather View 32 v70,2013-08-29 18:43:00,
2013-08-29 13:50:00,87.1,71.9,29.83,WNW,295,7.0,10.0,61,0.00,,,-99.99,Weather View 32 v70,2013-08-29 18:50:00,
2013-08-29 13:57:00,86.7,72.1,29.83,WNW,295,7.0,10.0,62,0.00,,,-99.99,Weather View 32 v70,2013-08-29 18:57:00,
2013-08-29 14:02:00,86.9,72.7,29.83,NW,324,4.0,10.0,63,0.00,,,-99.99,Weather View 32 v70,2013-08-29 19:02:00,
2013-08-29 14:12:00,87.1,71.9,29.83,NW,312,4.0,10.0,61,0.00,,,-99.99,Weather View 32 v70,2013-08-29 19:12:00,
2013-08-29 14:22:00,87.3,71.6,29.83,NW,308,3.0,10.0,60,0.00,,,-99.99,Weather View 32 v70,2013-08-29 19:22:00,
2013-08-29 14:32:00,88.2,71.5,29.83,WNW,290,5.0,10.0,58,0.00,,,-99.99,Weather View 32 v70,2013-08-29 19:32:00,
2013-08-29 14:43:00,88.3,71.1,29.80,WNW,300,3.0,9.0,57,0.00,,,-99.99,Weather View 32 v70,2013-08-29 19:43:00,
2013-08-29 14:51:00,88.5,70.7,29.80,NW,316,3.0,9.0,56,0.00,,,-99.99,Weather View 32 v70,2013-08-29 19:51:00,
2013-08-29 14:58:00,88.0,69.7,29.80,NNW,341,3.0,8.0,55,0.00,,,-99.99,Weather View 32 v70,2013-08-29 19:58:00,
2013-08-29 15:08:00,88.0,69.7,29.80,WNW,286,4.0,8.0,55,0.00,,,-99.99,Weather View 32 v70,2013-08-29 20:08:00,
2013-08-29 15:18:00,87.8,71.6,29.80,NW,307,5.0,8.0,59,0.00,,,-99.99,Weather View 32 v70,2013-08-29 20:18:00,
2013-08-29 15:28:00,88.9,70.6,29.80,WNW,300,4.0,8.0,55,0.00,,,-99.99,Weather View 32 v70,2013-08-29 20:28:00,
2013-08-29 15:38:00,89.4,68.8,29.80,WNW,301,6.0,8.0,51,0.00,,,-99.99,Weather View 32 v70,2013-08-29 20:38:00,
2013-08-29 15:43:00,89.6,68.4,29.80,NNW,342,4.0,8.0,50,0.00,,,-99.99,Weather View 32 v70,2013-08-29 20:43:00,
2013-08-29 15:48:00,89.1,68.5,29.80,NW,315,0.0,8.0,51,0.00,,,-99.99,Weather View 32 v70,2013-08-29 20:48:00,
2013-08-29 15:58:00,88.2,67.7,29.80,NW,317,3.0,8.0,51,0.00,,,-99.99,Weather View 32 v70,2013-08-29 20:58:00,
2013-08-29 16:08:00,88.0,69.2,29.80,WNW,298,3.0,8.0,54,0.00,,,-99.99,Weather View 32 v70,2013-08-29 21:08:00,
2013-08-29 16:13:00,88.9,69.5,29.80,West,281,4.0,8.0,53,0.00,,,-99.99,Weather View 32 v70,2013-08-29 21:13:00,
2013-08-29 16:23:00,89.4,70.0,29.80,WNW,301,4.0,8.0,53,0.00,,,-99.99,Weather View 32 v70,2013-08-29 21:23:00,
2013-08-29 16:33:00,89.4,69.4,29.80,NNW,335,4.0,8.0,52,0.00,,,-99.99,Weather View 32 v70,2013-08-29 21:33:00,
2013-08-29 16:38:00,89.2,69.2,29.80,NW,308,3.0,8.0,52,0.00,,,-99.99,Weather View 32 v70,2013-08-29 21:38:00,
2013-08-29 16:48:00,89.2,69.2,29.80,NNW,330,0.0,8.0,52,0.00,,,-99.99,Weather View 32 v70,2013-08-29 21:48:00,
2013-08-29 16:58:00,89.2,68.1,29.80,NNW,332,3.0,8.0,50,0.00,,,-99.99,Weather View 32 v70,2013-08-29 21:58:00,
2013-08-29 17:07:00,89.1,66.7,29.80,WNW,300,5.0,8.0,48,0.00,,,-99.99,Weather View 32 v70,2013-08-29 22:07:00,
2013-08-29 17:12:00,89.1,66.7,29.80,NNE,32,3.0,8.0,48,0.00,,,-99.99,Weather View 32 v70,2013-08-29 22:12:00,
2013-08-29 17:22:00,89.4,66.4,29.83,NNW,341,3.0,8.0,47,0.00,,,-99.99,Weather View 32 v70,2013-08-29 22:22:00,
2013-08-29 17:32:00,88.7,65.8,29.83,NW,325,6.0,8.0,47,0.00,,,-99.99,Weather View 32 v70,2013-08-29 22:32:00,
2013-08-29 17:42:00,89.1,65.5,29.83,NNW,327,4.0,8.0,46,0.00,,,-99.99,Weather View 32 v70,2013-08-29 22:42:00,
2013-08-29 17:47:00,88.7,65.8,29.83,NNW,348,6.0,8.0,47,0.00,,,-99.99,Weather View 32 v70,2013-08-29 22:47:00,
2013-08-29 17:57:00,88.2,65.3,29.83,NW,312,3.0,8.0,47,0.00,,,-99.99,Weather View 32 v70,2013-08-29 22:57:00,
2013-08-29 18:07:00,87.6,65.4,29.83,North,353,4.0,8.0,48,0.00,,,-99.99,Weather View 32 v70,2013-08-29 23:07:00,
2013-08-29 18:12:00,87.3,64.5,29.83,NNW,335,4.0,10.0,47,0.00,,,-99.99,Weather View 32 v70,2013-08-29 23:12:00,
2013-08-29 18:22:00,87.1,63.7,29.83,NW,325,4.0,10.0,46,0.00,,,-99.99,Weather View 32 v70,2013-08-29 23:22:00,
2013-08-29 18:27:00,86.9,63.5,29.83,NNW,338,6.0,10.0,46,0.00,,,-99.99,Weather View 32 v70,2013-08-29 23:27:00,
2013-08-29 18:37:00,86.4,64.3,29.83,North,357,3.0,10.0,48,0.00,,,-99.99,Weather View 32 v70,2013-08-29 23:37:00,
2013-08-29 18:43:00,86.5,63.8,29.83,NNE,20,4.0,10.0,47,0.00,,,-99.99,Weather View 32 v70,2013-08-29 23:43:00,
2013-08-29 18:53:00,86.0,63.3,29.83,North,357,3.0,10.0,47,0.00,,,-99.99,Weather View 32 v70,2013-08-29 23:53:00,
2013-08-29 19:03:00,85.3,64.5,29.83,NNW,339,4.0,10.0,50,0.00,,,-99.99,Weather View 32 v70,2013-08-30 00:03:00,
2013-08-29 19:13:00,84.7,64.5,29.83,North,349,3.0,9.0,51,0.00,,,-99.99,Weather View 32 v70,2013-08-30 00:13:00,
2013-08-29 19:23:00,84.4,64.2,29.83,North,357,4.0,9.0,51,0.00,,,-99.99,Weather View 32 v70,2013-08-30 00:23:00,
2013-08-29 19:28:00,84.4,64.8,29.83,North,3,0.0,9.0,52,0.00,,,-99.99,Weather View 32 v70,2013-08-30 00:28:00,
2013-08-29 19:38:00,84.0,65.0,29.86,NNW,345,3.0,9.0,53,0.00,,,-99.99,Weather View 32 v70,2013-08-30 00:38:00,
2013-08-29 19:48:00,82.9,65.0,29.86,NW,310,3.0,9.0,55,0.00,,,-99.99,Weather View 32 v70,2013-08-30 00:48:00,
2013-08-29 19:54:00,82.6,64.7,29.86,NW,322,2.0,9.0,55,0.00,,,-99.99,Weather View 32 v70,2013-08-30 00:54:00,
2013-08-29 20:03:00,82.0,65.2,29.86,NNW,333,0.0,9.0,57,0.00,,,-99.99,Weather View 32 v70,2013-08-30 01:03:00,
2013-08-29 20:13:00,81.5,65.2,29.86,NNW,342,0.0,7.0,58,0.00,,,-99.99,Weather View 32 v70,2013-08-30 01:13:00,
2013-08-29 20:23:00,81.1,65.4,29.86,NW,319,2.0,6.0,59,0.00,,,-99.99,Weather View 32 v70,2013-08-30 01:23:00,
2013-08-29 20:28:00,81.0,65.7,29.86,NNW,332,0.0,6.0,60,0.00,,,-99.99,Weather View 32 v70,2013-08-30 01:28:00,
2013-08-29 20:38:00,80.4,66.2,29.86,North,1,0.0,6.0,62,0.00,,,-99.99,Weather View 32 v70,2013-08-30 01:38:00,
2013-08-29 20:43:00,80.2,66.4,29.86,NNW,346,0.0,6.0,63,0.00,,,-99.99,Weather View 32 v70,2013-08-30 01:43:00,
2013-08-29 20:53:00,79.9,67.0,29.86,North,5,0.0,6.0,65,0.00,,,-99.99,Weather View 32 v70,2013-08-30 01:53:00,
2013-08-29 20:58:00,79.5,66.7,29.86,North,0,0.0,5.0,65,0.00,,,-99.99,Weather View 32 v70,2013-08-30 01:58:00,
2013-08-29 21:07:00,79.2,66.8,29.86,NNW,340,0.0,5.0,66,0.00,,,-99.99,Weather View 32 v70,2013-08-30 02:07:00,
2013-08-29 21:13:00,79.0,66.6,29.86,NNW,338,0.0,5.0,66,0.00,,,-99.99,Weather View 32 v70,2013-08-30 02:13:00,
2013-08-29 21:23:00,78.6,67.1,29.86,NW,324,0.0,5.0,68,0.00,,,-99.99,Weather View 32 v70,2013-08-30 02:23:00,
2013-08-29 21:32:00,78.3,66.8,29.86,NNW,344,0.0,5.0,68,0.00,,,-99.99,Weather View 32 v70,2013-08-30 02:32:00,
2013-08-29 21:42:00,77.9,66.9,29.86,North,349,0.0,5.0,69,0.00,,,-99.99,Weather View 32 v70,2013-08-30 02:42:00,
2013-08-29 21:47:00,77.7,66.3,29.89,NNW,334,0.0,5.0,68,0.00,,,-99.99,Weather View 32 v70,2013-08-30 02:47:00,
2013-08-29 21:54:00,77.5,66.1,29.89,North,353,3.0,5.0,68,0.00,,,-99.99,Weather View 32 v70,2013-08-30 02:54:00,
2013-08-29 22:02:00,77.2,65.8,29.89,NNW,341,2.0,6.0,68,0.00,,,-99.99,Weather View 32 v70,2013-08-30 03:02:00,
2013-08-29 22:07:00,77.0,65.6,29.89,North,357,2.0,6.0,68,0.00,,,-99.99,Weather View 32 v70,2013-08-30 03:07:00,
2013-08-29 22:17:00,76.8,65.8,29.89,NNW,336,0.0,6.0,69,0.00,,,-99.99,Weather View 32 v70,2013-08-30 03:17:00,
2013-08-29 22:22:00,76.6,65.7,29.89,NW,315,3.0,6.0,69,0.00,,,-99.99,Weather View 32 v70,2013-08-30 03:22:00,
2013-08-29 22:32:00,76.5,65.5,29.89,NE,43,0.0,6.0,69,0.00,,,-99.99,Weather View 32 v70,2013-08-30 03:32:00,
2013-08-29 22:38:00,76.3,65.3,29.89,NNW,344,0.0,6.0,69,0.00,,,-99.99,Weather View 32 v70,2013-08-30 03:38:00,
2013-08-29 22:48:00,75.9,65.0,29.89,NNE,16,0.0,6.0,69,0.00,,,-99.99,Weather View 32 v70,2013-08-30 03:48:00,
2013-08-29 22:56:00,75.9,65.0,29.89,North,0,0.0,6.0,69,0.00,,,-99.99,Weather View 32 v70,2013-08-30 03:56:00,
2013-08-29 23:03:00,75.6,65.0,29.89,North,350,0.0,5.0,70,0.00,,,-99.99,Weather View 32 v70,2013-08-30 04:03:00,
2013-08-29 23:08:00,75.4,64.9,29.89,North,357,0.0,5.0,70,0.00,,,-99.99,Weather View 32 v70,2013-08-30 04:08:00,
2013-08-29 23:18:00,75.2,65.1,29.89,NNW,345,0.0,4.0,71,0.00,,,-99.99,Weather View 32 v70,2013-08-30 04:18:00,
2013-08-29 23:28:00,75.0,65.3,29.89,NNW,336,2.0,5.0,72,0.00,,,-99.99,Weather View 32 v70,2013-08-30 04:28:00,
2013-08-29 23:38:00,74.7,65.4,29.89,NNE,21,3.0,5.0,73,0.00,,,-99.99,Weather View 32 v70,2013-08-30 04:38:00,
2013-08-29 23:43:00,74.5,65.2,29.89,NE,41,3.0,5.0,73,0.00,,,-99.99,Weather View 32 v70,2013-08-30 04:43:00,
2013-08-29 23:48:00,74.3,65.4,29.89,NNE,16,0.0,5.0,74,0.00,,,-99.99,Weather View 32 v70,2013-08-30 04:48:00,
2013-08-29 23:53:00,74.1,65.3,29.89,NNE,25,0.0,5.0,74,0.00,,,-99.99,Weather View 32 v70,2013-08-30 04:53:00,
2013-08-29 23:56:00,74.1,65.3,29.89,NNE,25,0.0,5.0,74,0.00,,,-99.99,Weather View 32 v70,2013-08-30 04:56:00,
2013-08-29 23:58:00,73.9,65.5,29.89,NNW,339,0.0,5.0,75,0.00,,,-99.99,Weather View 32 v70,2013-08-30 04:58:00,